Pacific Dawn — 3ECJ9 — position and weather

sailwx.info

Track history (hours):
 
Tides and Currents Weather Stations Pressure Air Temp Water Temp Dewpoint Dewpoint Depression Visibility Wind Speed Wind Dir Waves Ship Positions

Pacific Dawn

Last reported at 2018-Apr-20 15:32 UTC. Time now 2018-Apr-23 09:39 UTC.
Position N 01°15' E 104°05'.

Length 239 m; draft 8.2 m.

Type: Tanker. MMSI: 371361000.

Date/timePositionNaut miles runAvg speedWind from/ knotsBaromVisibWave heightAir tempDewpointWater temp
2018-Apr-20 15:32N 01°15' E 104°05'110.0
2018-Apr-20 15:26N 01°15' E 104°04'510.7
2018-Apr-20 14:58N 01°15' E 103°59'3 5.9
2018-Apr-20 14:27N 01°16' E 103°56'1 1.8
2018-Apr-20 13:57N 01°15' E 103°55'0 0.0
2018-Apr-20 13:30N 01°15' E 103°55'0 0.0
2018-Apr-20 12:51N 01°15' E 103°55'0 0.0
2018-Apr-20 10:51N 01°15' E 103°55'0 0.0
2018-Apr-20 10:30N 01°15' E 103°55'0 0.0
2018-Apr-20 09:57N 01°15' E 103°55'0 0.1
2018-Apr-20 08:39N 01°15' E 103°55'0 0.0
2018-Apr-20 08:15N 01°15' E 103°55'0 0.0
2018-Apr-20 07:33N 01°15' E 103°55'0 0.1
2018-Apr-20 07:21N 01°15' E 103°55'0 0.0
2018-Apr-20 06:54N 01°15' E 103°55'0 0.0
2018-Apr-20 05:54N 01°15' E 103°55'0 0.0
2018-Apr-20 05:30N 01°15' E 103°55'0 0.0
2018-Apr-20 04:51N 01°15' E 103°55'0 0.0
2018-Apr-20 04:27N 01°15' E 103°55'0 0.1
2018-Apr-20 02:58N 01°15' E 103°55'1 2.1
2018-Apr-20 02:28N 01°16' E 103°56'3 4.9
2018-Apr-20 01:57N 01°16' E 103°58'2 5.2
2018-Apr-20 01:30N 01°16' E 104°01'  
2018-Apr-11 21:50N 01°15' E 104°05'410.8
2018-Apr-11 21:30N 01°15' E 104°02'510.6
2018-Apr-11 21:00N 01°13' E 103°57'510.3
2018-Apr-11 20:30N 01°11' E 103°52'5 8.9
2018-Apr-11 19:59N 01°09' E 103°48'5 9.6
2018-Apr-11 19:30N 01°06' E 103°44'4 8.8
2018-Apr-11 19:00N 01°05' E 103°40'3 5.9
2018-Apr-11 18:30N 01°07' E 103°38'0 0.9
2018-Apr-11 18:00N 01°07' E 103°38'0 0.9
2018-Apr-11 17:30N 01°06' E 103°38'1 1.1
2018-Apr-11 16:49N 01°07' E 103°38'0 0.1
2018-Apr-11 16:25N 01°07' E 103°38'0 0.1
2018-Apr-11 15:55N 01°07' E 103°38'0 0.1
2018-Apr-11 15:19N 01°07' E 103°38'0 0.2
2018-Apr-11 14:55N 01°07' E 103°38'0 0.0
2018-Apr-11 14:28N 01°07' E 103°38'0 0.0
2018-Apr-11 13:58N 01°07' E 103°38'0 0.1
2018-Apr-11 13:28N 01°07' E 103°38'0 0.0
2018-Apr-11 12:49N 01°07' E 103°38'0 0.0
2018-Apr-11 12:28N 01°07' E 103°38'0 0.1
2018-Apr-11 11:55N 01°07' E 103°38'0 0.0
2018-Apr-11 11:22N 01°07' E 103°38'0 0.0
2018-Apr-11 10:58N 01°07' E 103°38'0 0.0
2018-Apr-11 10:28N 01°07' E 103°38'0 0.0
2018-Apr-11 09:49N 01°07' E 103°38'0 0.0
2018-Apr-11 09:19N 01°07' E 103°38'0 0.1
2018-Apr-11 08:55N 01°07' E 103°38'0 0.1
2018-Apr-11 08:28N 01°07' E 103°38'0 0.0
2018-Apr-11 07:52N 01°07' E 103°38'0 0.0
2018-Apr-11 07:28N 01°07' E 103°38'0 0.1
2018-Apr-11 06:40N 01°07' E 103°38'0 0.0
2018-Apr-11 06:28N 01°07' E 103°38'0 0.0
2018-Apr-11 05:52N 01°07' E 103°38'0 0.0
2018-Apr-11 05:19N 01°07' E 103°38'0 0.0
2018-Apr-11 04:58N 01°07' E 103°38'0 0.0
2018-Apr-11 04:22N 01°07' E 103°38'0 0.0
2018-Apr-11 03:58N 01°07' E 103°38'0 0.1
2018-Apr-11 03:16N 01°07' E 103°38'0 0.0
2018-Apr-11 02:58N 01°07' E 103°38'0 0.0
2018-Apr-11 02:28N 01°07' E 103°38'0 0.0
2018-Apr-11 01:58N 01°07' E 103°38'0 0.0
2018-Apr-11 01:28N 01°07' E 103°38'0 0.0
2018-Apr-11 00:58N 01°07' E 103°38'0 0.0
2018-Apr-11 00:28N 01°07' E 103°38'0 0.0
2018-Apr-10 23:58N 01°07' E 103°38'0 0.0
2018-Apr-10 23:25N 01°07' E 103°38'0 0.0
2018-Apr-10 22:58N 01°07' E 103°38'0 0.0
2018-Apr-10 22:28N 01°07' E 103°38'0 0.0
2018-Apr-10 21:58N 01°07' E 103°38'0 0.0
2018-Apr-10 21:28N 01°07' E 103°38'0 0.0
2018-Apr-10 20:58N 01°07' E 103°38'0 0.0
2018-Apr-10 20:28N 01°07' E 103°38'0 0.0
2018-Apr-10 19:55N 01°07' E 103°38'0 0.0
2018-Apr-10 19:28N 01°07' E 103°38'0 0.0
2018-Apr-10 18:52N 01°07' E 103°38'0 0.0
2018-Apr-10 18:28N 01°07' E 103°38'0 0.0
2018-Apr-10 17:58N 01°07' E 103°38'0 0.0
2018-Apr-10 17:25N 01°07' E 103°38'0 0.2
2018-Apr-10 16:58N 01°07' E 103°38'0 0.1
2018-Apr-10 16:28N 01°07' E 103°38'0 0.0
2018-Apr-10 15:58N 01°07' E 103°38'  
Track history (hours):
 
Tides and Currents Weather Stations Pressure Air Temp Water Temp Dewpoint Dewpoint Depression Visibility Wind Speed Wind Dir Waves Ship Positions

Pacific Dawn

Last reported at 2018-Apr-20 15:32 UTC. Time now 2018-Apr-23 09:39 UTC.
Position N 01°15' E 104°05'.

Length 239 m; draft 8.2 m.

Type: Tanker. MMSI: 371361000.

Date/timePositionNaut miles runAvg speedWind from/ knotsBaromVisibWave heightAir tempDewpointWater temp
2018-Apr-20 15:32N 01°15' E 104°05'110.0
2018-Apr-20 15:26N 01°15' E 104°04'510.7
2018-Apr-20 14:58N 01°15' E 103°59'3 5.9
2018-Apr-20 14:27N 01°16' E 103°56'1 1.8
2018-Apr-20 13:57N 01°15' E 103°55'0 0.0
2018-Apr-20 13:30N 01°15' E 103°55'0 0.0
2018-Apr-20 12:51N 01°15' E 103°55'0 0.0
2018-Apr-20 10:51N 01°15' E 103°55'0 0.0
2018-Apr-20 10:30N 01°15' E 103°55'0 0.0
2018-Apr-20 09:57N 01°15' E 103°55'0 0.1
2018-Apr-20 08:39N 01°15' E 103°55'0 0.0
2018-Apr-20 08:15N 01°15' E 103°55'0 0.0
2018-Apr-20 07:33N 01°15' E 103°55'0 0.1
2018-Apr-20 07:21N 01°15' E 103°55'0 0.0
2018-Apr-20 06:54N 01°15' E 103°55'0 0.0
2018-Apr-20 05:54N 01°15' E 103°55'0 0.0
2018-Apr-20 05:30N 01°15' E 103°55'0 0.0
2018-Apr-20 04:51N 01°15' E 103°55'0 0.0
2018-Apr-20 04:27N 01°15' E 103°55'0 0.1
2018-Apr-20 02:58N 01°15' E 103°55'1 2.1
2018-Apr-20 02:28N 01°16' E 103°56'3 4.9
2018-Apr-20 01:57N 01°16' E 103°58'2 5.2
2018-Apr-20 01:30N 01°16' E 104°01'  
2018-Apr-11 21:50N 01°15' E 104°05'410.8
2018-Apr-11 21:30N 01°15' E 104°02'510.6
2018-Apr-11 21:00N 01°13' E 103°57'510.3
2018-Apr-11 20:30N 01°11' E 103°52'5 8.9
2018-Apr-11 19:59N 01°09' E 103°48'5 9.6
2018-Apr-11 19:30N 01°06' E 103°44'4 8.8
2018-Apr-11 19:00N 01°05' E 103°40'3 5.9
2018-Apr-11 18:30N 01°07' E 103°38'0 0.9
2018-Apr-11 18:00N 01°07' E 103°38'0 0.9
2018-Apr-11 17:30N 01°06' E 103°38'1 1.1
2018-Apr-11 16:49N 01°07' E 103°38'0 0.1
2018-Apr-11 16:25N 01°07' E 103°38'0 0.1
2018-Apr-11 15:55N 01°07' E 103°38'0 0.1
2018-Apr-11 15:19N 01°07' E 103°38'0 0.2
2018-Apr-11 14:55N 01°07' E 103°38'0 0.0
2018-Apr-11 14:28N 01°07' E 103°38'0 0.0
2018-Apr-11 13:58N 01°07' E 103°38'0 0.1
2018-Apr-11 13:28N 01°07' E 103°38'0 0.0
2018-Apr-11 12:49N 01°07' E 103°38'0 0.0
2018-Apr-11 12:28N 01°07' E 103°38'0 0.1
2018-Apr-11 11:55N 01°07' E 103°38'0 0.0
2018-Apr-11 11:22N 01°07' E 103°38'0 0.0
2018-Apr-11 10:58N 01°07' E 103°38'0 0.0
2018-Apr-11 10:28N 01°07' E 103°38'0 0.0
2018-Apr-11 09:49N 01°07' E 103°38'0 0.0
2018-Apr-11 09:19N 01°07' E 103°38'0 0.1
2018-Apr-11 08:55N 01°07' E 103°38'0 0.1
2018-Apr-11 08:28N 01°07' E 103°38'0 0.0
2018-Apr-11 07:52N 01°07' E 103°38'0 0.0
2018-Apr-11 07:28N 01°07' E 103°38'0 0.1
2018-Apr-11 06:40N 01°07' E 103°38'0 0.0
2018-Apr-11 06:28N 01°07' E 103°38'0 0.0
2018-Apr-11 05:52N 01°07' E 103°38'0 0.0
2018-Apr-11 05:19N 01°07' E 103°38'0 0.0
2018-Apr-11 04:58N 01°07' E 103°38'0 0.0
2018-Apr-11 04:22N 01°07' E 103°38'0 0.0
2018-Apr-11 03:58N 01°07' E 103°38'0 0.1
2018-Apr-11 03:16N 01°07' E 103°38'0 0.0
2018-Apr-11 02:58N 01°07' E 103°38'0 0.0
2018-Apr-11 02:28N 01°07' E 103°38'0 0.0
2018-Apr-11 01:58N 01°07' E 103°38'0 0.0
2018-Apr-11 01:28N 01°07' E 103°38'0 0.0
2018-Apr-11 00:58N 01°07' E 103°38'0 0.0
2018-Apr-11 00:28N 01°07' E 103°38'0 0.0
2018-Apr-10 23:58N 01°07' E 103°38'0 0.0
2018-Apr-10 23:25N 01°07' E 103°38'0 0.0
2018-Apr-10 22:58N 01°07' E 103°38'0 0.0
2018-Apr-10 22:28N 01°07' E 103°38'0 0.0
2018-Apr-10 21:58N 01°07' E 103°38'0 0.0
2018-Apr-10 21:28N 01°07' E 103°38'0 0.0
2018-Apr-10 20:58N 01°07' E 103°38'0 0.0
2018-Apr-10 20:28N 01°07' E 103°38'0 0.0
2018-Apr-10 19:55N 01°07' E 103°38'0 0.0
2018-Apr-10 19:28N 01°07' E 103°38'0 0.0
2018-Apr-10 18:52N 01°07' E 103°38'0 0.0
2018-Apr-10 18:28N 01°07' E 103°38'0 0.0
2018-Apr-10 17:58N 01°07' E 103°38'0 0.0
2018-Apr-10 17:25N 01°07' E 103°38'0 0.2
2018-Apr-10 16:58N 01°07' E 103°38'0 0.1
2018-Apr-10 16:28N 01°07' E 103°38'0 0.0
2018-Apr-10 15:58N 01°07' E 103°38'  

Dump ship's entire track history